Time;durP1;ratioP1;P1;durP2;ratioP2;P2;SDS_P1;SDS_P2;PMS_P1;PMS_P2;Temp;Humidity;BMP_temperature;BMP_pressure;BME280_temperature;BME280_humidity;BME280_pressure;Samples;Min_cycle;Max_cycle;Signal;HPM_P1;HPM_P2
2021/10/24 00:02:10;;;;;;;10.00;8.97;;;4.80;99.90;;;;;;5012009;28;20570;-67
2021/10/24 00:04:36;;;;;;;13.30;8.27;;;4.80;99.90;;;;;;5013327;28;20265;-67
2021/10/24 00:07:02;;;;;;;10.83;9.10;;;4.80;99.90;;;;;;5005725;28;20191;-67
2021/10/24 00:09:27;;;;;;;14.93;9.67;;;4.80;99.90;;;;;;4999356;28;20640;-67
2021/10/24 00:11:53;;;;;;;12.33;9.23;;;4.80;99.90;;;;;;5007332;28;20309;-67
2021/10/24 00:14:19;;;;;;;11.70;9.30;;;4.80;99.90;;;;;;5008981;28;20182;-66
2021/10/24 00:16:45;;;;;;;10.50;8.87;;;4.70;99.90;;;;;;5012350;28;20248;-66
2021/10/24 00:19:11;;;;;;;11.97;9.00;;;4.60;99.90;;;;;;4997040;28;20430;-67
2021/10/24 00:21:36;;;;;;;11.50;9.63;;;4.60;99.90;;;;;;5009000;28;20254;-66
2021/10/24 00:24:02;;;;;;;10.93;9.17;;;4.60;99.90;;;;;;5008204;28;20492;-66
2021/10/24 00:26:28;;;;;;;9.53;8.63;;;4.60;99.90;;;;;;5010809;28;20185;-66
2021/10/24 00:28:53;;;;;;;10.90;8.70;;;4.60;99.90;;;;;;4996160;28;20921;-65
2021/10/24 00:31:19;;;;;;;9.67;8.67;;;4.60;99.90;;;;;;5008388;28;20281;-67
2021/10/24 00:33:45;;;;;;;9.60;7.87;;;4.60;99.90;;;;;;5007648;28;20236;-67
2021/10/24 00:36:10;;;;;;;16.60;9.27;;;4.50;99.90;;;;;;4999017;28;20175;-67
2021/10/24 00:38:36;;;;;;;12.40;9.30;;;4.50;99.90;;;;;;5008862;28;20305;-67
2021/10/24 00:41:01;;;;;;;17.27;9.27;;;4.50;99.90;;;;;;4996132;28;20191;-66
2021/10/24 00:43:27;;;;;;;8.10;7.27;;;4.50;99.90;;;;;;5001117;28;20616;-66
2021/10/24 00:45:52;;;;;;;9.37;8.10;;;4.40;99.90;;;;;;5000183;28;20191;-69
2021/10/24 00:48:18;;;;;;;14.15;10.10;;;4.40;99.90;;;;;;4995609;28;20438;-67
2021/10/24 00:50:44;;;;;;;12.60;10.00;;;4.30;99.90;;;;;;4994275;28;20182;-66
2021/10/24 00:53:12;;;;;;;11.00;9.83;;;4.20;99.90;;;;;;5005356;28;20186;-67
2021/10/24 00:55:38;;;;;;;11.00;8.23;;;4.10;99.90;;;;;;5001319;28;20211;-68
2021/10/24 00:58:06;;;;;;;9.53;8.63;;;4.20;99.90;;;;;;4993731;28;20496;-67
2021/10/24 01:00:31;;;;;;;11.63;7.70;;;4.10;99.90;;;;;;5007178;28;20203;-67
2021/10/24 01:02:57;;;;;;;8.20;7.40;;;4.10;99.90;;;;;;5002995;28;21023;-67
2021/10/24 01:05:23;;;;;;;16.80;8.30;;;4.00;99.90;;;;;;5002770;28;20163;-66
2021/10/24 01:07:49;;;;;;;9.70;8.10;;;4.00;99.90;;;;;;5012084;28;20942;-68
2021/10/24 01:10:18;;;;;;;9.27;8.30;;;4.00;99.90;;;;;;4993146;28;20186;-67
2021/10/24 01:12:46;;;;;;;12.60;9.10;;;4.00;99.90;;;;;;5001222;28;20233;-67
2021/10/24 01:15:12;;;;;;;10.20;8.70;;;4.00;99.90;;;;;;5009077;28;20950;-67
2021/10/24 01:17:37;;;;;;;7.43;6.83;;;4.00;99.90;;;;;;4993460;28;20472;-67
2021/10/24 01:20:04;;;;;;;8.97;7.63;;;4.00;99.90;;;;;;4999426;28;20213;-67
2021/10/24 01:22:30;;;;;;;8.97;7.60;;;3.90;99.90;;;;;;5001262;28;20238;-67
2021/10/24 01:24:56;;;;;;;12.30;8.57;;;4.00;99.90;;;;;;5002500;28;21220;-67
2021/10/24 01:27:22;;;;;;;9.37;8.03;;;3.90;99.90;;;;;;5007113;28;20442;-66
2021/10/24 01:29:47;;;;;;;8.90;8.10;;;3.90;99.90;;;;;;4995654;28;20565;-66
2021/10/24 01:32:13;;;;;;;14.60;8.00;;;3.90;99.90;;;;;;5003886;28;20234;-67
2021/10/24 01:34:48;;;;;;;13.60;8.03;;;3.80;99.90;;;;;;5002277;28;20193;-67
2021/10/24 01:37:16;;;;;;;10.63;8.40;;;3.80;99.90;;;;;;5009047;28;20234;-67
2021/10/24 01:39:42;;;;;;;11.07;8.60;;;3.80;99.90;;;;;;4991204;28;20828;-66
2021/10/24 01:42:07;;;;;;;12.60;8.70;;;3.70;99.90;;;;;;5002497;28;20850;-66
2021/10/24 01:44:33;;;;;;;11.30;8.60;;;3.70;99.90;;;;;;5001301;28;20445;-66
2021/10/24 01:46:58;;;;;;;8.03;7.23;;;3.70;99.90;;;;;;5010195;28;20179;-66
2021/10/24 01:49:24;;;;;;;12.10;8.60;;;3.70;99.90;;;;;;5011293;28;20178;-68
2021/10/24 01:51:50;;;;;;;9.63;8.50;;;3.70;99.90;;;;;;5006608;28;20226;-66
2021/10/24 01:54:15;;;;;;;10.47;9.00;;;3.60;99.90;;;;;;5006790;28;20186;-66
2021/10/24 01:56:41;;;;;;;10.43;9.33;;;3.60;99.90;;;;;;4995139;28;20180;-67
2021/10/24 01:59:06;;;;;;;11.23;8.33;;;3.60;99.90;;;;;;4997341;28;20250;-66
2021/10/24 02:01:32;;;;;;;11.47;7.53;;;3.50;99.90;;;;;;5001634;28;20195;-66
2021/10/24 02:03:57;;;;;;;13.10;8.47;;;3.50;99.90;;;;;;4993824;28;20644;-67
2021/10/24 02:06:23;;;;;;;9.43;8.27;;;3.60;99.90;;;;;;4992675;28;20180;-66
2021/10/24 02:08:48;;;;;;;9.17;7.47;;;3.60;99.90;;;;;;4992097;28;20238;-66
2021/10/24 02:11:14;;;;;;;11.10;8.60;;;3.50;99.90;;;;;;4994236;28;20222;-65
2021/10/24 02:13:39;;;;;;;9.10;6.77;;;3.50;99.90;;;;;;5002292;28;20612;-65
2021/10/24 02:16:06;;;;;;;8.10;7.33;;;3.50;99.90;;;;;;5002471;28;20656;-65
2021/10/24 02:18:31;;;;;;;11.50;8.57;;;3.50;99.90;;;;;;4993892;28;20261;-65
2021/10/24 02:20:57;;;;;;;8.20;7.27;;;3.40;99.90;;;;;;4998740;28;20438;-65
2021/10/24 02:23:22;;;;;;;8.60;7.80;;;3.40;99.90;;;;;;5013987;28;20183;-65
2021/10/24 02:25:48;;;;;;;8.17;7.30;;;3.30;99.90;;;;;;5008934;28;20175;-65
2021/10/24 02:28:14;;;;;;;9.87;6.60;;;3.30;99.90;;;;;;4995652;28;20187;-65
2021/10/24 02:30:39;;;;;;;9.90;7.47;;;3.30;99.90;;;;;;5011704;28;20553;-65
2021/10/24 02:33:05;;;;;;;8.27;7.40;;;3.30;99.90;;;;;;4999108;28;20269;-66
2021/10/24 02:35:30;;;;;;;13.03;7.90;;;3.30;99.90;;;;;;5008204;28;20558;-65
2021/10/24 02:37:56;;;;;;;7.80;6.43;;;3.30;99.90;;;;;;4995586;28;20192;-65
2021/10/24 02:40:22;;;;;;;7.20;6.60;;;3.20;99.90;;;;;;5003714;28;20707;-65
2021/10/24 02:42:49;;;;;;;8.53;6.60;;;3.20;99.90;;;;;;4998938;28;20665;-65
2021/10/24 02:45:15;;;;;;;11.60;6.80;;;3.20;99.90;;;;;;5014599;28;20938;-64
2021/10/24 02:47:40;;;;;;;7.60;6.80;;;3.20;99.90;;;;;;5013312;28;20442;-65
2021/10/24 02:50:07;;;;;;;9.57;8.37;;;3.10;99.90;;;;;;5013559;28;20950;-65
2021/10/24 02:52:32;;;;;;;9.10;7.20;;;3.10;99.90;;;;;;5013042;28;20679;-64
2021/10/24 02:54:58;;;;;;;10.40;7.57;;;3.00;99.90;;;;;;5008819;28;20521;-65
2021/10/24 02:57:24;;;;;;;7.67;6.90;;;3.00;99.90;;;;;;4995023;28;20207;-64
2021/10/24 02:59:49;;;;;;;9.17;7.70;;;3.00;99.90;;;;;;4997503;28;20183;-64
2021/10/24 03:02:15;;;;;;;13.30;8.60;;;3.00;99.90;;;;;;5005843;28;20191;-65
2021/10/24 03:04:40;;;;;;;7.67;6.10;;;3.00;99.90;;;;;;4995653;28;20176;-64
2021/10/24 03:07:06;;;;;;;11.80;7.27;;;3.10;99.90;;;;;;5001988;28;20183;-64
2021/10/24 03:09:31;;;;;;;10.60;7.07;;;3.10;99.90;;;;;;5001043;28;20222;-65
2021/10/24 03:11:57;;;;;;;7.70;6.00;;;3.10;99.90;;;;;;4998227;28;20215;-64
2021/10/24 03:14:23;;;;;;;9.30;7.20;;;3.10;99.90;;;;;;4999106;28;20198;-64
2021/10/24 03:16:48;;;;;;;7.83;6.37;;;3.10;99.90;;;;;;5014255;28;20182;-64
2021/10/24 03:19:14;;;;;;;9.73;7.10;;;3.10;99.90;;;;;;5003377;28;20175;-64
2021/10/24 03:21:40;;;;;;;11.23;6.03;;;3.10;99.90;;;;;;5005286;28;20748;-64
2021/10/24 03:24:06;;;;;;;8.00;6.60;;;3.10;99.90;;;;;;5004553;28;20438;-64
2021/10/24 03:26:32;;;;;;;7.53;6.23;;;3.10;99.90;;;;;;5013841;28;20186;-64
2021/10/24 03:28:59;;;;;;;11.50;6.73;;;3.00;99.90;;;;;;5005319;28;20182;-64
2021/10/24 03:31:25;;;;;;;7.77;6.27;;;3.00;99.90;;;;;;5003718;28;20457;-64
2021/10/24 03:33:51;;;;;;;8.10;7.40;;;3.00;99.90;;;;;;5010019;28;20437;-64
2021/10/24 03:36:17;;;;;;;9.30;6.00;;;3.00;99.90;;;;;;5014296;28;20826;-64
2021/10/24 03:38:42;;;;;;;8.97;7.53;;;3.00;99.90;;;;;;5013628;28;20497;-64
2021/10/24 03:41:09;;;;;;;8.60;6.90;;;2.90;99.90;;;;;;5002521;28;20215;-65
2021/10/24 03:43:34;;;;;;;13.60;6.40;;;2.80;99.90;;;;;;5005509;28;20177;-64
2021/10/24 03:46:00;;;;;;;6.83;5.83;;;2.80;99.90;;;;;;4995487;28;20444;-65
2021/10/24 03:48:26;;;;;;;7.23;6.10;;;2.70;99.90;;;;;;4994083;28;20179;-64
2021/10/24 03:50:52;;;;;;;7.77;6.70;;;2.70;99.90;;;;;;5005530;28;20323;-65
2021/10/24 03:53:18;;;;;;;11.20;7.20;;;2.80;99.90;;;;;;5010958;28;20179;-66
2021/10/24 03:55:46;;;;;;;9.60;6.13;;;2.70;99.90;;;;;;5008756;28;20493;-65
2021/10/24 03:58:12;;;;;;;7.43;6.60;;;2.70;99.90;;;;;;4997479;28;20473;-66
2021/10/24 04:00:38;;;;;;;9.00;6.43;;;2.70;99.90;;;;;;4994581;28;20538;-66
2021/10/24 04:03:06;;;;;;;8.47;6.60;;;2.70;99.90;;;;;;5002765;28;21045;-66
2021/10/24 04:05:33;;;;;;;10.37;6.20;;;2.70;99.90;;;;;;5006552;28;20179;-66
2021/10/24 04:07:59;;;;;;;8.00;6.03;;;2.60;99.90;;;;;;5009216;28;20540;-66
2021/10/24 04:10:26;;;;;;;7.97;5.93;;;2.60;99.90;;;;;;5011283;28;20434;-63
2021/10/24 04:12:52;;;;;;;6.47;5.77;;;2.60;99.90;;;;;;5011994;28;20469;-63
2021/10/24 04:15:19;;;;;;;9.70;5.90;;;2.60;99.90;;;;;;5011397;28;20819;-63
2021/10/24 04:17:45;;;;;;;11.47;6.80;;;2.60;99.90;;;;;;5010780;28;20453;-63
2021/10/24 04:20:14;;;;;;;11.03;6.60;;;2.60;99.90;;;;;;5004180;28;20519;-64
2021/10/24 04:22:40;;;;;;;8.07;6.50;;;2.70;99.90;;;;;;5003111;28;20524;-64
2021/10/24 04:25:08;;;;;;;7.60;6.80;;;2.60;99.90;;;;;;5009935;28;20866;-64
2021/10/24 04:27:34;;;;;;;10.70;5.50;;;2.60;99.90;;;;;;4999045;28;20194;-63
2021/10/24 04:30:00;;;;;;;12.90;6.23;;;2.60;99.90;;;;;;5003464;28;20439;-66
2021/10/24 04:32:26;;;;;;;10.10;6.17;;;2.60;99.90;;;;;;5008042;28;20823;-65
2021/10/24 04:34:51;;;;;;;11.33;6.27;;;2.50;99.90;;;;;;4993019;28;20466;-65
2021/10/24 04:37:17;;;;;;;6.67;6.07;;;2.50;99.90;;;;;;4993457;28;20642;-65
2021/10/24 04:39:43;;;;;;;6.17;5.57;;;2.50;99.90;;;;;;4997497;28;20187;-65
2021/10/24 04:42:09;;;;;;;9.50;6.70;;;2.50;99.90;;;;;;5011238;28;20481;-65
2021/10/24 04:44:34;;;;;;;8.33;6.30;;;2.50;99.90;;;;;;5011221;28;20469;-66
2021/10/24 04:47:00;;;;;;;6.57;5.90;;;2.50;99.90;;;;;;4997181;28;20593;-66
2021/10/24 04:49:25;;;;;;;8.30;6.97;;;2.50;99.90;;;;;;5000221;28;20187;-65
2021/10/24 04:51:51;;;;;;;7.73;6.23;;;2.50;99.90;;;;;;4999089;28;20608;-65
2021/10/24 04:54:17;;;;;;;8.03;6.37;;;2.50;99.90;;;;;;4996249;28;20175;-66
2021/10/24 04:56:43;;;;;;;8.50;6.43;;;2.50;99.90;;;;;;5003390;28;20636;-66
2021/10/24 04:59:08;;;;;;;10.47;7.60;;;2.50;99.90;;;;;;4998228;28;20487;-66
2021/10/24 05:01:34;;;;;;;7.17;6.27;;;2.50;99.90;;;;;;4995527;28;20199;-66
2021/10/24 05:03:59;;;;;;;7.90;6.70;;;2.50;99.90;;;;;;4999662;28;20188;-66
2021/10/24 05:06:25;;;;;;;9.37;6.13;;;2.50;99.90;;;;;;5001434;28;20190;-66
2021/10/24 05:08:50;;;;;;;11.40;6.93;;;2.50;99.90;;;;;;5010931;28;20183;-67
2021/10/24 05:11:16;;;;;;;10.53;5.83;;;2.50;99.90;;;;;;4956874;28;1066327;-66
2021/10/24 05:13:41;;;;;;;6.30;5.40;;;2.50;99.90;;;;;;5007408;28;20187;-66
2021/10/24 05:16:07;;;;;;;8.57;5.60;;;2.50;99.90;;;;;;5000139;28;20187;-65
2021/10/24 05:18:32;;;;;;;8.37;6.20;;;2.50;99.90;;;;;;5011771;28;20297;-64
2021/10/24 05:20:58;;;;;;;8.07;5.70;;;2.50;99.90;;;;;;4995710;28;20614;-64
2021/10/24 05:23:24;;;;;;;7.17;5.40;;;2.50;99.90;;;;;;5000327;28;20176;-64
2021/10/24 05:25:50;;;;;;;10.10;5.47;;;2.50;99.90;;;;;;4996031;28;20258;-65
2021/10/24 05:28:15;;;;;;;8.80;6.03;;;2.40;99.90;;;;;;5011350;28;20187;-65
2021/10/24 05:30:41;;;;;;;7.50;6.00;;;2.40;99.90;;;;;;4993535;28;20194;-64
2021/10/24 05:33:06;;;;;;;11.37;6.07;;;2.40;99.90;;;;;;4998529;28;20575;-64
2021/10/24 05:35:32;;;;;;;7.60;5.70;;;2.40;99.90;;;;;;5011759;28;20656;-64
2021/10/24 05:37:57;;;;;;;9.80;5.80;;;2.40;99.90;;;;;;5010993;28;20216;-64
2021/10/24 05:40:23;;;;;;;6.60;6.10;;;2.40;99.90;;;;;;5000108;28;20271;-64
2021/10/24 05:42:49;;;;;;;9.57;6.53;;;2.40;99.90;;;;;;5007379;28;20574;-63
2021/10/24 05:45:15;;;;;;;7.13;5.50;;;2.40;99.90;;;;;;5000781;28;20435;-64
2021/10/24 05:47:40;;;;;;;6.43;5.60;;;2.40;99.90;;;;;;4992611;28;20242;-65
2021/10/24 05:50:06;;;;;;;8.70;6.03;;;2.40;99.90;;;;;;4995993;28;20258;-64
2021/10/24 05:52:32;;;;;;;6.43;5.83;;;2.40;99.90;;;;;;4994711;28;20206;-64
2021/10/24 05:54:57;;;;;;;6.33;5.73;;;2.30;99.90;;;;;;5012590;28;20225;-65
2021/10/24 05:57:23;;;;;;;8.70;7.43;;;2.30;99.90;;;;;;5014685;28;20468;-64
2021/10/24 05:59:48;;;;;;;8.70;5.73;;;2.40;99.90;;;;;;5011342;28;20181;-64
2021/10/24 06:02:14;;;;;;;7.20;5.97;;;2.40;99.90;;;;;;5000955;28;20629;-65
2021/10/24 06:04:40;;;;;;;7.60;6.50;;;2.40;99.90;;;;;;5014758;28;20537;-65
2021/10/24 06:07:05;;;;;;;8.07;5.40;;;2.40;99.90;;;;;;5014872;28;20206;-66
2021/10/24 06:09:43;;;;;;;6.70;6.00;;;2.40;99.90;;;;;;5002604;28;20190;-66
2021/10/24 06:12:47;;;;;;;7.53;5.73;;;2.30;99.90;;;;;;5005691;28;20214;-66
2021/10/24 06:15:05;;;;;;;8.23;6.90;;;2.30;99.90;;;;;;5020120;28;20445;-66
2021/10/24 06:17:31;;;;;;;8.43;6.33;;;2.30;99.90;;;;;;5004910;28;20474;-67
2021/10/24 06:19:57;;;;;;;7.33;6.47;;;2.40;99.90;;;;;;4998653;28;20441;-66
2021/10/24 06:22:23;;;;;;;9.00;7.83;;;2.40;99.90;;;;;;5010296;28;20647;-66
2021/10/24 06:24:48;;;;;;;9.80;7.20;;;2.50;99.90;;;;;;5011380;28;20526;-66
2021/10/24 06:27:14;;;;;;;9.87;7.57;;;2.50;99.90;;;;;;5004107;28;20261;-66
2021/10/24 06:29:39;;;;;;;9.70;6.83;;;2.60;99.90;;;;;;5011271;28;20261;-66
2021/10/24 06:32:06;;;;;;;7.97;6.40;;;2.60;99.90;;;;;;5014724;28;20215;-66
2021/10/24 06:34:31;;;;;;;7.07;6.37;;;2.60;99.90;;;;;;5000864;28;20194;-65
2021/10/24 06:36:57;;;;;;;10.30;7.50;;;2.60;99.90;;;;;;5009439;28;20469;-65
2021/10/24 06:39:23;;;;;;;7.37;6.43;;;2.70;99.90;;;;;;5000375;28;20199;-66
2021/10/24 06:41:49;;;;;;;8.40;7.60;;;2.80;99.90;;;;;;5000700;28;20262;-66
2021/10/24 06:44:14;;;;;;;6.70;6.00;;;3.10;99.90;;;;;;4998329;28;20210;-66
2021/10/24 06:46:40;;;;;;;8.00;7.20;;;3.60;99.90;;;;;;5006164;28;20199;-66
2021/10/24 06:49:05;;;;;;;7.57;6.77;;;4.10;99.90;;;;;;5003370;28;20601;-66
2021/10/24 06:51:32;;;;;;;7.63;6.67;;;4.70;99.90;;;;;;4996868;28;20390;-66
2021/10/24 06:53:58;;;;;;;10.77;7.87;;;5.20;99.90;;;;;;5008939;28;20183;-67
2021/10/24 06:56:23;;;;;;;10.70;7.80;;;5.70;99.90;;;;;;4996633;28;20449;-66
2021/10/24 06:58:49;;;;;;;8.27;7.33;;;6.20;99.90;;;;;;5001056;28;20214;-65
2021/10/24 07:01:15;;;;;;;8.10;6.80;;;6.50;99.90;;;;;;5003080;28;20672;-67
2021/10/24 07:03:41;;;;;;;12.17;8.87;;;6.80;99.90;;;;;;5013323;28;20656;-66
2021/10/24 07:06:06;;;;;;;14.30;9.60;;;7.30;99.90;;;;;;4996635;28;20182;-67
2021/10/24 07:08:32;;;;;;;11.30;8.93;;;7.50;99.90;;;;;;5005626;28;20677;-66
2021/10/24 07:10:57;;;;;;;11.97;9.30;;;7.80;99.90;;;;;;4995011;28;20203;-67
2021/10/24 07:13:23;;;;;;;9.83;8.83;;;8.20;99.90;;;;;;4998963;28;20569;-67
2021/10/24 07:15:48;;;;;;;14.00;9.70;;;8.30;99.90;;;;;;5001704;28;20190;-66
2021/10/24 07:18:14;;;;;;;12.03;9.37;;;8.70;99.90;;;;;;4998768;28;20254;-67
2021/10/24 07:20:39;;;;;;;8.77;7.87;;;9.10;99.90;;;;;;5011245;28;20187;-67
2021/10/24 07:23:05;;;;;;;8.67;7.77;;;9.40;99.90;;;;;;5012836;28;20282;-67
2021/10/24 07:25:30;;;;;;;11.13;7.83;;;9.90;99.90;;;;;;5009051;28;20662;-67
2021/10/24 07:27:56;;;;;;;9.43;6.60;;;10.00;99.90;;;;;;5006700;28;20210;-67
2021/10/24 07:30:22;;;;;;;8.30;6.87;;;10.60;99.90;;;;;;4999802;28;20670;-67
2021/10/24 07:32:48;;;;;;;7.27;6.53;;;11.10;99.90;;;;;;5006947;28;20206;-67
2021/10/24 07:35:14;;;;;;;7.63;5.83;;;11.20;99.90;;;;;;5011348;28;20270;-67
2021/10/24 07:37:40;;;;;;;8.10;7.17;;;11.40;99.90;;;;;;5000076;28;20544;-67
2021/10/24 07:40:08;;;;;;;8.83;7.33;;;11.70;99.90;;;;;;5002232;28;20179;-68
2021/10/24 07:42:34;;;;;;;6.47;5.80;;;12.00;99.90;;;;;;4994366;28;21168;-67
2021/10/24 07:45:00;;;;;;;7.80;7.07;;;12.70;99.90;;;;;;5011644;28;20433;-67
2021/10/24 07:47:30;;;;;;;12.90;6.87;;;13.10;99.90;;;;;;5004527;28;20451;-67
2021/10/24 07:49:59;;;;;;;6.93;6.00;;;13.00;99.90;;;;;;5007197;28;20260;-69
2021/10/24 07:52:25;;;;;;;6.10;5.40;;;13.30;99.90;;;;;;4999118;28;20459;-68
2021/10/24 07:54:50;;;;;;;8.07;6.50;;;12.80;99.90;;;;;;5007938;28;20438;-67
2021/10/24 07:57:16;;;;;;;9.67;7.00;;;12.90;99.90;;;;;;5002032;28;20230;-67
2021/10/24 07:59:42;;;;;;;6.73;6.13;;;12.80;99.90;;;;;;5011654;28;20189;-66
2021/10/24 08:02:09;;;;;;;7.63;5.33;;;13.50;99.90;;;;;;5007181;28;20198;-67
2021/10/24 08:04:35;;;;;;;7.30;6.30;;;14.30;99.90;;;;;;5006182;28;20167;-67
2021/10/24 08:07:03;;;;;;;6.83;6.23;;;14.50;99.90;;;;;;5000119;28;21089;-67
2021/10/24 08:09:29;;;;;;;10.03;9.07;;;14.60;99.90;;;;;;5002902;28;20458;-66
2021/10/24 08:11:56;;;;;;;9.80;8.60;;;14.50;99.80;;;;;;5002172;28;20504;-67
2021/10/24 08:14:22;;;;;;;9.30;7.20;;;14.90;99.20;;;;;;4996982;28;20434;-67
2021/10/24 08:16:47;;;;;;;9.43;6.70;;;15.60;97.50;;;;;;5010678;28;20440;-67
2021/10/24 08:19:14;;;;;;;9.30;6.50;;;16.10;97.60;;;;;;4996582;28;20951;-67
2021/10/24 08:21:40;;;;;;;7.33;6.50;;;16.20;95.70;;;;;;5004638;28;20213;-64
2021/10/24 08:24:06;;;;;;;7.73;6.60;;;17.20;94.10;;;;;;4998649;28;20430;-67
2021/10/24 08:26:32;;;;;;;7.90;6.97;;;17.30;93.40;;;;;;5008799;28;20206;-65
2021/10/24 08:28:58;;;;;;;7.43;6.73;;;18.00;92.00;;;;;;5005553;28;20526;-65
2021/10/24 08:31:26;;;;;;;10.30;7.50;;;18.50;90.50;;;;;;5011992;28;20457;-65
2021/10/24 08:33:59;;;;;;;9.00;7.70;;;19.50;87.10;;;;;;5010260;28;20234;-65
2021/10/24 08:36:26;;;;;;;9.30;6.73;;;20.20;82.80;;;;;;5002528;28;20438;-65
2021/10/24 08:38:53;;;;;;;7.30;6.43;;;21.40;77.30;;;;;;4999992;28;20461;-65
2021/10/24 08:41:27;;;;;;;7.70;7.10;;;21.80;73.00;;;;;;5009429;28;20453;-65
2021/10/24 08:43:58;;;;;;;8.00;5.93;;;21.50;68.80;;;;;;4994597;28;20457;-65
2021/10/24 08:46:24;;;;;;;7.97;7.17;;;20.30;72.30;;;;;;5000538;28;20891;-66
2021/10/24 08:48:50;;;;;;;8.10;7.30;;;19.10;72.50;;;;;;5012390;28;20500;-65
2021/10/24 08:51:17;;;;;;;7.67;6.80;;;18.20;77.20;;;;;;5003672;28;20949;-70
2021/10/24 08:53:44;;;;;;;6.40;5.83;;;18.80;76.00;;;;;;5002321;28;20441;-69
2021/10/24 08:56:23;;;;;;;6.90;6.40;;;18.70;75.20;;;;;;4999003;28;20441;-67
2021/10/24 08:58:50;;;;;;;8.03;6.37;;;18.70;74.50;;;;;;5007682;28;20462;-65
2021/10/24 09:01:17;;;;;;;6.47;5.97;;;19.20;75.60;;;;;;4997616;28;20446;-65
2021/10/24 09:04:01;;;;;;;6.63;5.70;;;19.10;73.70;;;;;;4993338;28;20807;-67
2021/10/24 09:06:42;;;;;;;7.33;6.17;;;19.10;74.60;;;;;;4995280;28;20933;-69
2021/10/24 09:09:16;;;;;;;6.20;5.43;;;19.10;73.00;;;;;;5004626;28;20434;-68
2021/10/24 09:11:49;;;;;;;5.63;5.13;;;20.10;71.20;;;;;;5011717;28;20496;-69
2021/10/24 09:14:46;;;;;;;7.63;5.67;;;19.50;70.80;;;;;;5010134;28;20942;-70
2021/10/24 09:17:23;;;;;;;5.83;5.30;;;19.20;71.20;;;;;;5008393;28;20453;-70
2021/10/24 09:19:53;;;;;;;5.60;5.10;;;19.50;70.10;;;;;;5010189;28;20434;-68
2021/10/24 09:22:24;;;;;;;5.10;4.70;;;19.70;70.60;;;;;;5006666;28;20449;-73
2021/10/24 09:25:04;;;;;;;8.23;5.43;;;19.30;69.70;;;;;;4993901;28;20915;-73
2021/10/24 09:27:40;;;;;;;7.93;5.10;;;18.80;71.50;;;;;;5011019;28;20433;-77
2021/10/24 09:30:12;;;;;;;5.67;5.17;;;19.30;71.60;;;;;;4998565;28;20521;-75
2021/10/24 09:32:58;;;;;;;6.27;5.67;;;21.00;69.20;;;;;;5002480;28;20553;-70
2021/10/24 09:35:32;;;;;;;5.83;5.23;;;22.10;66.70;;;;;;5009390;28;20465;-72
2021/10/24 09:38:02;;;;;;;5.37;4.87;;;23.20;62.80;;;;;;4994391;28;20541;-71
2021/10/24 09:40:32;;;;;;;5.67;4.10;;;24.20;59.40;;;;;;5009797;28;20930;-74
2021/10/24 09:43:14;;;;;;;6.23;4.50;;;24.80;56.50;;;;;;5005207;28;20804;-74
2021/10/24 09:45:41;;;;;;;4.60;4.20;;;24.70;55.10;;;;;;5006064;28;20457;-73
2021/10/24 09:48:12;;;;;;;5.90;5.13;;;24.00;55.50;;;;;;5004938;28;20438;-70
2021/10/24 09:50:42;;;;;;;4.90;3.67;;;25.00;54.50;;;;;;4998240;28;20446;-72
2021/10/24 09:53:27;;;;;;;4.37;4.07;;;23.80;53.50;;;;;;5008610;28;20442;-75
2021/10/24 09:55:53;;;;;;;4.73;4.43;;;22.90;55.20;;;;;;4997668;28;20434;-72
2021/10/24 09:58:20;;;;;;;5.80;4.30;;;21.10;56.90;;;;;;5005609;28;20824;-67
2021/10/24 10:00:46;;;;;;;7.97;6.83;;;21.50;57.90;;;;;;4993725;28;20176;-68
2021/10/24 10:03:13;;;;;;;4.37;3.97;;;22.10;56.60;;;;;;4994409;28;20517;-67
2021/10/24 10:05:40;;;;;;;5.20;4.80;;;21.80;56.70;;;;;;4998381;28;21102;-71
2021/10/24 10:08:08;;;;;;;4.63;4.27;;;21.50;56.70;;;;;;4995972;28;20445;-74
2021/10/24 10:10:38;;;;;;;6.30;5.20;;;21.20;56.70;;;;;;4999165;28;20442;-70
2021/10/24 10:13:09;;;;;;;5.80;4.87;;;21.00;57.70;;;;;;5030118;23;20532;-72
2021/10/24 10:15:39;;;;;;;6.90;5.07;;;21.30;57.70;;;;;;5000904;28;20426;-72
2021/10/24 10:18:05;;;;;;;4.90;4.47;;;22.00;57.50;;;;;;5006223;28;20461;-72
2021/10/24 10:20:33;;;;;;;4.40;4.00;;;21.90;56.50;;;;;;4998022;28;20433;-72
2021/10/24 10:23:12;;;;;;;5.17;4.70;;;21.60;57.10;;;;;;5003449;28;20541;-75
2021/10/24 10:25:39;;;;;;;4.77;4.23;;;22.70;55.10;;;;;;4996401;28;20458;-76
2021/10/24 10:28:06;;;;;;;5.00;4.50;;;22.60;55.20;;;;;;5005428;28;21126;-77
2021/10/24 10:30:38;;;;;;;5.07;4.60;;;22.20;55.70;;;;;;5014588;28;20442;-76
2021/10/24 10:33:30;;;;;;;5.80;4.47;;;23.20;54.50;;;;;;5000642;28;20457;-74
2021/10/24 10:35:56;;;;;;;5.07;4.67;;;23.00;54.10;;;;;;4998055;28;20462;-72
2021/10/24 10:38:37;;;;;;;6.80;4.40;;;23.60;53.80;;;;;;5002351;28;20493;-73
2021/10/24 10:41:03;;;;;;;4.80;4.40;;;26.40;51.50;;;;;;5010603;28;20968;-72
2021/10/24 10:43:29;;;;;;;4.77;4.40;;;26.60;48.40;;;;;;5015028;28;20457;-72
2021/10/24 10:46:00;;;;;;;4.43;4.03;;;27.50;48.50;;;;;;5011608;28;20857;-72
2021/10/24 10:48:42;;;;;;;5.07;4.67;;;29.00;45.50;;;;;;5009423;28;20217;-72
2021/10/24 10:51:23;;;;;;;5.53;5.03;;;26.30;45.80;;;;;;5014626;28;20437;-72
2021/10/24 10:53:52;;;;;;;5.00;4.60;;;26.70;46.40;;;;;;5008111;28;20492;-73
2021/10/24 10:56:34;;;;;;;5.10;4.27;;;25.90;47.00;;;;;;4998120;28;21049;-73
2021/10/24 10:59:04;;;;;;;6.40;4.83;;;25.80;47.10;;;;;;5000592;28;20465;-73
2021/10/24 11:01:34;;;;;;;4.77;4.37;;;24.50;48.00;;;;;;5003579;28;20512;-73
2021/10/24 11:04:19;;;;;;;5.03;4.60;;;25.70;48.30;;;;;;5014323;28;20430;-73
2021/10/24 11:06:51;;;;;;;4.13;3.73;;;28.10;46.10;;;;;;5000355;28;20806;-72
2021/10/24 11:09:42;;;;;;;4.93;4.43;;;30.20;42.90;;;;;;5006479;28;20796;-72
2021/10/24 11:12:28;;;;;;;5.43;5.03;;;27.80;42.40;;;;;;4994986;28;20501;-72
2021/10/24 11:15:14;;;;;;;4.70;4.23;;;26.00;44.30;;;;;;5000335;28;20795;-72
2021/10/24 11:17:48;;;;;;;4.50;4.10;;;27.60;44.40;;;;;;5001921;28;20457;-72
2021/10/24 11:20:20;;;;;;;4.67;4.27;;;26.30;44.00;;;;;;5010248;28;20466;-68
2021/10/24 11:22:56;;;;;;;6.47;4.57;;;27.10;44.70;;;;;;4999009;28;20457;-68
2021/10/24 11:25:33;;;;;;;5.50;5.10;;;28.00;42.70;;;;;;4999678;28;20439;-68
2021/10/24 11:28:07;;;;;;;6.13;4.23;;;26.70;44.50;;;;;;4998703;28;20518;-69
2021/10/24 11:30:35;;;;;;;4.20;3.90;;;29.10;43.10;;;;;;5012443;28;20435;-68
2021/10/24 11:33:00;;;;;;;8.10;4.63;;;30.10;41.50;;;;;;5008350;28;20486;-69
2021/10/24 11:35:26;;;;;;;6.37;5.77;;;31.00;39.40;;;;;;4995875;28;20466;-68
2021/10/24 11:37:58;;;;;;;5.07;4.67;;;28.20;41.50;;;;;;5006672;28;20637;-69
2021/10/24 11:40:28;;;;;;;6.47;4.50;;;29.50;42.00;;;;;;4996669;28;20176;-69
2021/10/24 11:43:09;;;;;;;5.13;3.70;;;31.30;39.60;;;;;;5005331;28;20450;-69
2021/10/24 11:45:44;;;;;;;4.17;3.87;;;31.50;38.50;;;;;;4994643;28;20411;-68
2021/10/24 11:48:18;;;;;;;5.30;4.90;;;28.70;40.20;;;;;;5009187;28;20945;-71
2021/10/24 11:50:48;;;;;;;5.93;5.43;;;29.50;40.90;;;;;;5012981;28;20528;-72
2021/10/24 11:53:17;;;;;;;5.37;4.97;;;31.00;38.80;;;;;;5015326;28;20461;-72
2021/10/24 11:55:45;;;;;;;5.00;4.60;;;30.70;38.10;;;;;;5013309;28;20524;-72
2021/10/24 12:00:51;;;;;;;9.03;8.10;;;30.80;39.70;;;;;;5011698;28;20516;-73
2021/10/24 12:03:27;;;;;;;8.53;6.60;;;31.90;38.10;;;;;;5002057;28;20194;-73
2021/10/24 12:05:53;;;;;;;7.60;6.90;;;33.40;36.50;;;;;;5007306;28;20462;-73
2021/10/24 12:08:46;;;;;;;6.30;5.27;;;34.30;35.80;;;;;;4994270;28;20446;-72
2021/10/24 12:11:18;;;;;;;5.33;4.83;;;34.40;34.90;;;;;;5001722;28;20183;-74
2021/10/24 12:13:45;;;;;;;5.00;4.60;;;32.70;34.70;;;;;;5005687;28;20448;-75
2021/10/24 12:16:36;;;;;;;4.30;3.57;;;33.70;35.10;;;;;;5014079;28;20973;-73
2021/10/24 12:19:30;;;;;;;4.93;4.53;;;34.50;34.40;;;;;;5000812;28;20477;-74
2021/10/24 12:22:00;;;;;;;5.60;5.20;;;35.60;33.00;;;;;;5016452;28;20807;-65
2021/10/24 12:24:30;;;;;;;4.37;3.97;;;34.80;32.00;;;;;;5011757;28;20445;-62
2021/10/24 12:27:04;;;;;;;5.23;4.83;;;35.20;32.80;;;;;;5001568;28;20446;-63
2021/10/24 12:29:30;;;;;;;4.60;4.30;;;35.00;32.40;;;;;;4993394;28;20439;-63
2021/10/24 12:32:10;;;;;;;5.07;4.67;;;35.50;32.40;;;;;;5006558;28;20465;-63
2021/10/24 12:34:36;;;;;;;5.57;5.17;;;36.60;31.50;;;;;;5010332;28;20214;-63
2021/10/24 12:37:02;;;;;;;5.17;4.87;;;35.80;31.30;;;;;;5021756;28;20488;-63
2021/10/24 12:39:28;;;;;;;4.40;4.10;;;35.60;31.40;;;;;;5011225;28;20548;-62
2021/10/24 12:41:54;;;;;;;4.97;4.40;;;35.60;31.40;;;;;;5013771;28;20649;-63
2021/10/24 12:44:22;;;;;;;4.93;4.50;;;34.40;31.80;;;;;;5006849;28;20710;-63
2021/10/24 12:46:49;;;;;;;5.10;4.70;;;34.70;31.60;;;;;;5015212;28;20437;-62
2021/10/24 12:49:20;;;;;;;5.13;4.63;;;32.00;32.50;;;;;;5006995;28;20480;-65
2021/10/24 12:51:48;;;;;;;5.63;5.23;;;30.70;35.20;;;;;;5011530;28;20565;-65
2021/10/24 12:54:27;;;;;;;5.00;4.60;;;33.10;33.60;;;;;;5008156;28;20452;-65
2021/10/24 12:56:52;;;;;;;4.97;4.57;;;35.50;31.90;;;;;;5010462;28;20441;-66
2021/10/24 12:59:18;;;;;;;5.63;5.10;;;34.60;31.00;;;;;;5011951;28;20509;-66